Time;durP1;ratioP1;P1;durP2;ratioP2;P2;SDS_P1;SDS_P2;PMS_P1;PMS_P2;Temp;Humidity;BMP_temperature;BMP_pressure;BME280_temperature;BME280_humidity;BME280_pressure;Samples;Min_cycle;Max_cycle;Signal;HPM_P1;HPM_P2
2021/03/08 00:02:16;;;;;;;40.92;18.58;;;5.00;99.90;;;;;;5069923;28;20028;-68
2021/03/08 00:04:41;;;;;;;42.65;18.55;;;4.90;99.90;;;;;;5072350;28;20496;-69
2021/03/08 00:07:07;;;;;;;42.22;17.98;;;4.90;99.90;;;;;;5072212;28;20020;-68
2021/03/08 00:09:33;;;;;;;45.95;19.13;;;4.90;99.90;;;;;;5071226;28;20440;-69
2021/03/08 00:11:58;;;;;;;49.15;19.88;;;4.90;99.90;;;;;;5070261;28;20070;-69
2021/03/08 00:14:24;;;;;;;46.03;19.55;;;4.90;99.90;;;;;;5071361;28;20492;-69
2021/03/08 00:16:49;;;;;;;42.10;18.42;;;4.90;99.90;;;;;;5072013;28;20041;-68
2021/03/08 00:19:15;;;;;;;43.30;19.58;;;4.80;99.90;;;;;;5073176;28;20032;-69
2021/03/08 00:21:41;;;;;;;44.97;18.83;;;4.80;99.90;;;;;;5072389;28;20446;-69
2021/03/08 00:24:07;;;;;;;46.30;20.15;;;4.80;99.90;;;;;;5070895;28;20470;-69
2021/03/08 00:26:32;;;;;;;44.13;19.10;;;4.80;99.90;;;;;;5072012;28;20028;-69
2021/03/08 00:28:58;;;;;;;41.05;19.67;;;4.70;99.90;;;;;;5072111;28;20027;-70
2021/03/08 00:31:23;;;;;;;50.50;19.40;;;4.80;99.90;;;;;;5071570;28;21568;-69
2021/03/08 00:33:49;;;;;;;44.60;19.58;;;4.70;99.90;;;;;;5072313;28;20024;-69
2021/03/08 00:36:15;;;;;;;46.95;19.52;;;4.80;99.90;;;;;;5072579;28;20028;-69
2021/03/08 00:38:40;;;;;;;46.42;18.83;;;4.90;99.90;;;;;;5072622;28;20438;-69
2021/03/08 00:41:06;;;;;;;42.38;18.98;;;4.90;99.90;;;;;;5071786;28;20029;-69
2021/03/08 00:43:32;;;;;;;42.58;19.10;;;4.90;99.90;;;;;;5072794;28;20039;-69
2021/03/08 00:45:57;;;;;;;42.92;18.90;;;4.90;99.90;;;;;;5072301;28;20181;-70
2021/03/08 00:48:23;;;;;;;36.45;17.10;;;4.90;99.90;;;;;;5072474;28;20099;-70
2021/03/08 00:50:48;;;;;;;49.25;18.90;;;4.90;99.90;;;;;;5072207;28;20028;-68
2021/03/08 00:53:14;;;;;;;51.47;19.23;;;5.00;99.90;;;;;;5072190;28;20103;-68
2021/03/08 00:55:40;;;;;;;50.03;20.70;;;4.90;99.90;;;;;;5072217;28;20445;-69
2021/03/08 00:58:05;;;;;;;48.22;19.90;;;4.90;99.90;;;;;;5072503;28;20068;-69
2021/03/08 01:00:31;;;;;;;45.92;19.63;;;4.90;99.90;;;;;;5072423;28;20400;-69
2021/03/08 01:02:57;;;;;;;46.63;18.60;;;4.90;99.90;;;;;;5069814;28;20036;-68
2021/03/08 01:05:23;;;;;;;46.95;19.95;;;4.80;99.90;;;;;;5072289;28;20024;-68
2021/03/08 01:07:52;;;;;;;46.33;19.65;;;4.80;99.90;;;;;;5076070;28;20020;-69
2021/03/08 01:10:24;;;;;;;51.05;19.38;;;4.80;99.90;;;;;;5076130;28;20040;-70
2021/03/08 01:12:50;;;;;;;43.78;18.95;;;4.80;99.90;;;;;;5076114;28;20032;-69
2021/03/08 01:15:16;;;;;;;48.55;20.23;;;4.90;99.90;;;;;;5074534;28;20017;-68
2021/03/08 01:17:41;;;;;;;40.15;18.50;;;4.90;99.90;;;;;;5074410;28;20028;-68
2021/03/08 01:20:10;;;;;;;49.03;21.48;;;4.90;99.90;;;;;;5075982;28;20024;-70
2021/03/08 01:22:35;;;;;;;49.10;20.05;;;4.90;99.90;;;;;;5074479;28;20033;-68
2021/03/08 01:25:05;;;;;;;50.20;19.20;;;4.80;99.90;;;;;;5076060;28;20514;-68
2021/03/08 01:27:30;;;;;;;45.17;19.25;;;4.80;99.90;;;;;;5073493;28;20044;-68
2021/03/08 01:29:56;;;;;;;42.53;18.80;;;4.90;99.90;;;;;;5075926;28;20483;-68
2021/03/08 01:32:21;;;;;;;42.75;18.50;;;4.80;99.90;;;;;;5075165;28;20065;-68
2021/03/08 01:34:47;;;;;;;47.45;19.52;;;4.80;99.90;;;;;;5074900;28;20040;-67
2021/03/08 01:37:12;;;;;;;50.58;20.63;;;4.80;99.90;;;;;;5075573;28;20056;-69
2021/03/08 01:39:38;;;;;;;41.10;18.02;;;4.80;99.90;;;;;;5074657;28;20036;-69
2021/03/08 01:42:04;;;;;;;43.17;19.05;;;4.90;99.90;;;;;;5075336;28;20058;-67
2021/03/08 01:44:29;;;;;;;48.45;19.42;;;4.90;99.90;;;;;;5075692;28;20032;-69
2021/03/08 01:46:55;;;;;;;38.33;18.17;;;4.90;99.90;;;;;;5074604;28;20068;-68
2021/03/08 01:49:21;;;;;;;45.47;20.65;;;4.90;99.90;;;;;;5074970;28;20512;-69
2021/03/08 01:51:47;;;;;;;50.42;21.55;;;4.90;99.90;;;;;;5074770;28;20097;-69
2021/03/08 01:54:12;;;;;;;44.75;20.02;;;4.90;99.90;;;;;;5075560;28;20385;-68
2021/03/08 01:56:38;;;;;;;44.80;19.55;;;4.90;99.90;;;;;;5076566;28;20074;-69
2021/03/08 01:59:04;;;;;;;49.28;20.98;;;4.90;99.90;;;;;;5073993;28;20028;-69
2021/03/08 02:01:29;;;;;;;50.85;19.65;;;4.90;99.90;;;;;;5075585;28;20070;-70
2021/03/08 02:03:56;;;;;;;47.25;19.08;;;4.90;99.90;;;;;;5074807;28;20029;-69
2021/03/08 02:06:22;;;;;;;43.20;20.00;;;5.00;99.90;;;;;;5074972;28;20040;-69
2021/03/08 02:08:47;;;;;;;46.78;20.10;;;5.00;99.90;;;;;;5074548;28;20024;-68
2021/03/08 02:11:13;;;;;;;41.38;19.70;;;5.10;99.90;;;;;;5074632;28;20044;-69
2021/03/08 02:14:08;;;;;;;45.20;20.73;;;5.00;99.90;;;;;;5075462;28;20035;-69
2021/03/08 02:16:49;;;;;;;47.78;20.83;;;5.10;99.90;;;;;;5033444;28;20565;-69
2021/03/08 02:19:54;;;;;;;41.53;20.67;;;5.10;99.90;;;;;;5074671;28;20044;-67
2021/03/08 02:22:44;;;;;;;45.35;19.83;;;5.10;99.90;;;;;;5075190;28;20114;-68
2021/03/08 02:25:47;;;;;;;42.17;18.25;;;5.00;99.90;;;;;;5073655;28;20132;-69
2021/03/08 02:28:51;;;;;;;46.88;20.23;;;4.90;99.90;;;;;;5062317;28;20061;-68
2021/03/08 02:31:20;;;;;;;43.78;19.95;;;4.90;99.90;;;;;;5033111;28;20439;-68
2021/03/08 02:33:57;;;;;;;47.47;21.05;;;4.80;99.90;;;;;;5074692;28;20021;-68
2021/03/08 02:36:27;;;;;;;35.92;15.35;;;4.90;99.90;;;;;;5073399;28;20115;-69
2021/03/08 02:38:59;;;;;;;52.47;21.70;;;4.90;99.90;;;;;;5073349;28;20151;-69
2021/03/08 02:41:27;;;;;;;46.78;21.10;;;4.90;99.90;;;;;;5072227;28;20477;-68
2021/03/08 02:43:59;;;;;;;46.08;19.23;;;4.90;99.90;;;;;;5074299;28;20108;-68
2021/03/08 02:46:35;;;;;;;47.03;19.95;;;4.80;99.90;;;;;;5074095;28;20028;-68
2021/03/08 02:49:04;;;;;;;43.53;19.65;;;4.80;99.90;;;;;;5074671;28;20111;-68
2021/03/08 02:51:32;;;;;;;44.95;21.80;;;4.80;99.90;;;;;;5073600;28;20029;-67
2021/03/08 02:54:01;;;;;;;47.97;21.27;;;4.80;99.90;;;;;;5073091;28;20120;-69
2021/03/08 02:56:32;;;;;;;45.17;21.48;;;4.80;99.90;;;;;;5072430;28;20111;-69
2021/03/08 02:59:00;;;;;;;48.30;19.70;;;4.80;99.90;;;;;;5073096;28;20487;-69
2021/03/08 03:01:27;;;;;;;50.10;21.63;;;4.80;99.90;;;;;;5066629;28;20043;-69
2021/03/08 03:03:55;;;;;;;44.45;20.20;;;4.80;99.90;;;;;;5074097;28;20071;-69
2021/03/08 03:06:24;;;;;;;51.22;21.20;;;4.90;99.90;;;;;;5074050;28;20096;-69
2021/03/08 03:08:51;;;;;;;49.63;20.52;;;4.90;99.90;;;;;;5074395;28;20081;-68
2021/03/08 03:11:18;;;;;;;45.67;20.17;;;4.90;99.90;;;;;;5071889;28;20043;-67
2021/03/08 03:13:46;;;;;;;43.78;19.00;;;4.90;99.90;;;;;;5073741;28;20027;-68
2021/03/08 03:16:13;;;;;;;47.60;19.73;;;4.90;99.90;;;;;;5073262;28;20435;-68
2021/03/08 03:18:40;;;;;;;41.92;19.58;;;4.80;99.90;;;;;;5073944;28;20112;-68
2021/03/08 03:21:07;;;;;;;47.13;19.70;;;4.80;99.90;;;;;;5073407;28;20381;-67
2021/03/08 03:23:36;;;;;;;48.03;20.20;;;4.80;99.90;;;;;;5072967;28;20039;-68
2021/03/08 03:26:05;;;;;;;46.75;20.35;;;4.80;99.90;;;;;;5069085;28;20086;-68
2021/03/08 03:28:31;;;;;;;47.58;19.88;;;4.80;99.90;;;;;;5072596;28;20032;-68
2021/03/08 03:30:58;;;;;;;41.10;19.55;;;4.90;99.90;;;;;;5071575;28;20023;-69
2021/03/08 03:33:24;;;;;;;43.15;19.95;;;4.90;99.90;;;;;;5071658;28;20035;-69
2021/03/08 03:35:50;;;;;;;47.03;20.25;;;4.90;99.90;;;;;;5072872;28;20076;-68
2021/03/08 03:38:19;;;;;;;51.28;19.88;;;4.90;99.90;;;;;;5072897;28;20029;-68
2021/03/08 03:40:45;;;;;;;43.35;19.88;;;4.90;99.90;;;;;;5071446;28;20111;-68
2021/03/08 03:43:11;;;;;;;42.10;18.88;;;4.90;99.90;;;;;;5072666;28;20151;-68
2021/03/08 03:45:36;;;;;;;47.28;20.38;;;4.80;99.90;;;;;;5071991;28;20023;-69
2021/03/08 03:48:03;;;;;;;44.85;20.33;;;4.70;99.90;;;;;;5072152;28;20052;-69
2021/03/08 03:50:29;;;;;;;54.83;21.63;;;4.70;99.90;;;;;;5072632;28;20043;-69
2021/03/08 03:52:54;;;;;;;42.53;18.27;;;4.80;99.90;;;;;;5071559;28;20316;-68
2021/03/08 03:55:22;;;;;;;43.75;17.55;;;4.80;99.90;;;;;;5072378;28;20142;-69
2021/03/08 03:58:11;;;;;;;48.03;19.08;;;4.90;99.90;;;;;;5072605;28;20381;-68
2021/03/08 04:00:47;;;;;;;46.55;21.38;;;4.80;99.90;;;;;;5072526;28;20020;-68
2021/03/08 04:03:16;;;;;;;48.65;18.52;;;4.80;99.90;;;;;;5070775;28;20060;-68
2021/03/08 04:05:43;;;;;;;42.15;18.45;;;4.90;99.90;;;;;;5072408;28;20055;-68
2021/03/08 04:08:11;;;;;;;43.92;18.13;;;4.90;99.90;;;;;;5071583;28;20554;-68
2021/03/08 04:10:40;;;;;;;41.75;19.55;;;4.80;99.90;;;;;;5070776;28;20037;-68
2021/03/08 04:13:10;;;;;;;;;;;4.80;99.90;;;;;;5073243;28;20036;-69
2021/03/08 04:15:38;;;;;;;45.25;18.27;;;4.80;99.90;;;;;;5071944;28;19909;-68
2021/03/08 04:18:05;;;;;;;43.35;18.50;;;4.80;99.90;;;;;;5072226;28;20024;-69
2021/03/08 04:20:32;;;;;;;40.37;18.07;;;4.80;99.90;;;;;;5072298;28;20044;-68
2021/03/08 04:23:03;;;;;;;42.75;17.73;;;4.80;99.90;;;;;;5072576;28;20041;-68
2021/03/08 04:25:30;;;;;;;47.55;19.98;;;4.90;99.90;;;;;;5073026;28;20028;-69
2021/03/08 04:27:58;;;;;;;51.03;18.70;;;4.90;99.90;;;;;;5070988;28;20040;-68
2021/03/08 04:30:24;;;;;;;;;;;4.80;99.90;;;;;;5070992;28;20123;-70
2021/03/08 04:32:52;;;;;;;52.92;19.83;;;4.90;99.90;;;;;;5072326;28;19936;-70
2021/03/08 04:35:20;;;;;;;38.67;17.90;;;4.90;99.90;;;;;;5067611;28;20109;-68
2021/03/08 04:37:47;;;;;;;43.50;19.05;;;4.80;99.90;;;;;;5071898;28;20150;-67
2021/03/08 04:40:15;;;;;;;43.47;19.35;;;4.80;99.90;;;;;;5070910;28;20017;-69
2021/03/08 04:42:42;;;;;;;47.15;19.00;;;4.80;99.90;;;;;;5072091;28;20131;-68
2021/03/08 04:45:10;;;;;;;42.13;17.67;;;4.80;99.90;;;;;;5072206;28;20062;-68
2021/03/08 04:47:37;;;;;;;44.67;19.10;;;4.90;99.90;;;;;;5070540;28;20778;-69
2021/03/08 04:50:05;;;;;;;47.55;19.90;;;4.90;99.90;;;;;;5070428;28;20040;-69
2021/03/08 04:52:30;;;;;;;;;;;4.90;99.90;;;;;;5071282;28;20016;-69
2021/03/08 04:54:57;;;;;;;41.35;17.98;;;4.80;99.90;;;;;;5072428;28;20426;-69
2021/03/08 04:57:24;;;;;;;41.67;18.90;;;4.90;99.90;;;;;;5070882;28;20392;-70
2021/03/08 04:59:53;;;;;;;52.05;18.60;;;4.90;99.90;;;;;;5062665;28;20557;-69
2021/03/08 05:02:21;;;;;;;45.25;18.27;;;4.80;99.90;;;;;;5071957;28;20051;-68
2021/03/08 05:04:50;;;;;;;41.97;18.17;;;4.80;99.90;;;;;;5071682;28;20029;-68
2021/03/08 05:07:21;;;;;;;43.65;17.60;;;4.80;99.90;;;;;;5072236;28;20021;-68
2021/03/08 05:09:48;;;;;;;47.17;21.23;;;4.80;99.90;;;;;;5071525;28;20094;-68
2021/03/08 05:12:15;;;;;;;45.05;18.58;;;4.90;99.90;;;;;;5070790;28;20025;-69
2021/03/08 05:14:43;;;;;;;46.10;19.25;;;4.90;99.90;;;;;;5072041;28;20063;-68
2021/03/08 05:17:09;;;;;;;40.35;18.88;;;4.90;99.90;;;;;;5072225;28;20090;-68
2021/03/08 05:19:38;;;;;;;40.38;17.48;;;5.00;99.90;;;;;;5071972;28;20029;-69
2021/03/08 05:22:04;;;;;;;47.08;18.67;;;5.00;99.90;;;;;;5071615;28;20393;-69
2021/03/08 05:24:30;;;;;;;38.58;17.13;;;5.00;99.90;;;;;;5072326;28;20033;-69
2021/03/08 05:26:57;;;;;;;48.88;18.58;;;5.00;99.90;;;;;;5071529;28;20461;-69
2021/03/08 05:29:23;;;;;;;45.05;18.25;;;5.00;99.90;;;;;;5071429;28;20025;-69
2021/03/08 05:31:51;;;;;;;45.10;18.85;;;5.00;99.90;;;;;;5070540;28;20105;-70
2021/03/08 05:34:19;;;;;;;47.08;19.83;;;5.00;99.90;;;;;;5071645;28;20040;-69
2021/03/08 05:36:48;;;;;;;42.03;18.13;;;5.00;99.90;;;;;;5071917;28;20029;-70
2021/03/08 05:39:17;;;;;;;39.78;17.98;;;5.00;99.90;;;;;;5071705;28;20107;-70
2021/03/08 05:42:03;;;;;;;40.90;17.77;;;5.00;99.90;;;;;;5071991;28;20481;-69
2021/03/08 05:44:30;;;;;;;39.60;18.33;;;5.00;99.90;;;;;;5052359;28;20436;-70
2021/03/08 05:47:02;;;;;;;42.08;18.10;;;5.10;99.90;;;;;;5071406;28;20031;-69
2021/03/08 05:50:20;;;;;;;38.92;16.88;;;5.20;99.90;;;;;;5071773;28;20350;-70
2021/03/08 05:53:18;;;;;;;45.58;19.42;;;5.20;99.90;;;;;;5027933;28;20393;-70
2021/03/08 05:55:52;;;;;;;38.90;17.40;;;5.10;99.90;;;;;;5073147;28;20029;-70
2021/03/08 05:58:29;;;;;;;44.00;18.52;;;5.20;99.90;;;;;;5073349;28;20058;-70
2021/03/08 06:01:11;;;;;;;41.47;18.45;;;5.20;99.90;;;;;;5073772;28;20024;-69
2021/03/08 06:04:17;;;;;;;39.95;17.58;;;5.20;99.90;;;;;;5073848;28;20043;-69
2021/03/08 06:07:04;;;;;;;46.55;17.98;;;5.20;99.90;;;;;;5072952;28;20048;-68
2021/03/08 06:09:55;;;;;;;41.80;17.13;;;5.20;99.90;;;;;;5069137;28;20032;-69
2021/03/08 06:12:25;;;;;;;45.50;18.52;;;5.20;99.90;;;;;;5071226;28;20033;-69
2021/03/08 06:14:57;;;;;;;44.45;18.20;;;5.20;99.90;;;;;;5074902;28;20024;-68
2021/03/08 06:17:23;;;;;;;42.33;19.42;;;5.30;99.90;;;;;;5074517;28;20082;-68
2021/03/08 06:19:50;;;;;;;48.33;18.58;;;5.30;99.90;;;;;;5074431;28;20024;-69
2021/03/08 06:22:16;;;;;;;43.63;19.05;;;5.30;99.90;;;;;;5074533;28;20059;-69
2021/03/08 06:24:44;;;;;;;41.55;17.15;;;5.30;99.90;;;;;;5073834;28;20136;-69
2021/03/08 06:27:11;;;;;;;45.08;19.52;;;5.30;99.90;;;;;;5069706;28;20028;-69
2021/03/08 06:29:39;;;;;;;41.83;18.65;;;5.30;99.90;;;;;;5070591;28;20024;-68
2021/03/08 06:32:06;;;;;;;42.72;17.63;;;5.30;99.90;;;;;;5070694;28;20423;-68
2021/03/08 06:34:32;;;;;;;45.58;18.58;;;5.40;99.90;;;;;;5071776;28;20433;-68
2021/03/08 06:37:04;;;;;;;44.85;18.95;;;5.40;99.90;;;;;;5074252;28;20028;-69
2021/03/08 06:39:34;;;;;;;40.65;17.73;;;5.40;99.90;;;;;;5074237;28;20086;-69
2021/03/08 06:42:00;;;;;;;42.15;18.05;;;5.50;99.90;;;;;;5074428;28;20444;-70
2021/03/08 06:44:28;;;;;;;46.38;18.83;;;5.40;99.90;;;;;;5072489;28;20116;-69
2021/03/08 06:46:53;;;;;;;45.27;19.37;;;5.40;99.90;;;;;;5074028;28;20023;-69
2021/03/08 06:49:19;;;;;;;41.83;19.60;;;5.40;99.90;;;;;;5073136;28;20013;-68
2021/03/08 06:52:01;;;;;;;42.50;18.65;;;5.50;99.90;;;;;;5072564;28;20029;-68
2021/03/08 06:54:27;;;;;;;40.55;18.27;;;5.50;99.90;;;;;;5071834;28;20020;-69
2021/03/08 06:56:53;;;;;;;48.05;18.83;;;5.50;99.90;;;;;;5073096;28;20029;-68
2021/03/08 06:59:19;;;;;;;44.30;19.10;;;5.40;99.90;;;;;;5073673;28;20033;-68
2021/03/08 07:01:45;;;;;;;49.60;18.73;;;5.50;99.90;;;;;;5073093;28;20515;-69
2021/03/08 07:04:24;;;;;;;44.45;18.63;;;5.60;99.90;;;;;;5072784;28;20108;-68
2021/03/08 07:07:06;;;;;;;42.60;17.88;;;5.60;99.90;;;;;;5073184;28;20025;-68
2021/03/08 07:09:33;;;;;;;45.28;19.83;;;5.60;99.90;;;;;;5071550;28;20033;-69
2021/03/08 07:12:13;;;;;;;42.38;18.63;;;5.60;99.90;;;;;;5073221;28;20477;-69
2021/03/08 07:14:40;;;;;;;46.33;17.90;;;5.70;99.90;;;;;;5073349;28;20028;-69
2021/03/08 07:17:29;;;;;;;56.70;18.17;;;5.80;99.90;;;;;;5066474;28;20078;-68
2021/03/08 07:20:00;;;;;;;47.15;18.58;;;5.80;99.90;;;;;;5070668;28;20043;-69
2021/03/08 07:22:47;;;;;;;38.67;18.10;;;5.90;99.90;;;;;;5061803;28;20025;-69
2021/03/08 07:25:18;;;;;;;37.05;17.05;;;5.90;99.90;;;;;;5066103;28;20182;-68
2021/03/08 07:27:47;;;;;;;49.13;19.75;;;6.00;99.90;;;;;;5072426;28;20393;-69
2021/03/08 07:30:13;;;;;;;;;;;6.00;99.90;;;;;;5071119;28;20033;-69
2021/03/08 07:32:40;;;;;;;41.42;17.23;;;6.00;99.90;;;;;;5071343;28;20276;-68
2021/03/08 07:35:08;;;;;;;46.43;18.30;;;6.10;99.90;;;;;;5074450;28;20484;-69
2021/03/08 07:37:47;;;;;;;45.15;19.23;;;6.00;99.90;;;;;;5070629;28;20117;-70
2021/03/08 07:40:23;;;;;;;38.75;16.98;;;6.10;99.90;;;;;;5082797;28;20024;-70
2021/03/08 07:42:50;;;;;;;39.72;17.60;;;6.10;99.90;;;;;;5067117;28;20117;-69
2021/03/08 07:45:17;;;;;;;39.42;18.58;;;6.10;99.90;;;;;;5078071;28;20054;-68
2021/03/08 07:47:43;;;;;;;44.53;19.08;;;6.10;99.90;;;;;;5076512;28;20020;-68
2021/03/08 07:50:28;;;;;;;49.42;18.52;;;6.20;99.90;;;;;;5068407;28;20033;-69
2021/03/08 07:52:58;;;;;;;45.47;17.27;;;6.30;99.90;;;;;;5068751;28;20055;-68
2021/03/08 07:55:36;;;;;;;36.65;17.95;;;6.40;99.90;;;;;;5072622;28;20024;-67
2021/03/08 07:58:03;;;;;;;43.90;17.65;;;6.40;99.90;;;;;;5072240;28;20025;-68
2021/03/08 08:00:30;;;;;;;40.07;18.17;;;6.40;99.90;;;;;;5072068;28;20373;-67
2021/03/08 08:02:59;;;;;;;41.40;17.33;;;6.50;99.90;;;;;;5066952;28;20767;-69
2021/03/08 08:05:25;;;;;;;34.90;16.40;;;6.60;99.90;;;;;;5067435;28;20032;-69
2021/03/08 08:07:54;;;;;;;37.05;17.27;;;6.60;99.90;;;;;;5072601;28;20096;-69
2021/03/08 08:10:21;;;;;;;45.33;16.20;;;6.60;99.90;;;;;;5071872;28;20046;-69
2021/03/08 08:12:48;;;;;;;37.03;16.17;;;6.70;99.90;;;;;;5072269;28;20033;-68
2021/03/08 08:15:18;;;;;;;33.97;15.40;;;6.70;99.90;;;;;;5072637;28;20469;-69
2021/03/08 08:17:46;;;;;;;33.38;15.63;;;6.80;99.90;;;;;;5070814;28;20040;-68
2021/03/08 08:20:13;;;;;;;34.75;15.90;;;6.80;99.90;;;;;;5068931;28;20433;-69
2021/03/08 08:23:13;;;;;;;35.30;16.23;;;7.00;99.90;;;;;;5070959;28;20062;-69
2021/03/08 08:25:39;;;;;;;34.63;16.58;;;7.00;99.90;;;;;;5035667;28;20052;-68
2021/03/08 08:28:05;;;;;;;34.00;15.52;;;7.00;99.90;;;;;;5070904;28;20025;-69
2021/03/08 08:30:30;;;;;;;31.63;14.90;;;7.10;99.90;;;;;;5069886;28;20033;-69
2021/03/08 08:32:59;;;;;;;38.67;16.15;;;7.20;99.90;;;;;;5070423;28;20063;-69
2021/03/08 08:35:26;;;;;;;43.25;16.27;;;7.10;99.90;;;;;;5072109;28;20024;-69
2021/03/08 08:38:07;;;;;;;29.33;14.77;;;7.10;99.90;;;;;;5074357;28;20447;-68
2021/03/08 08:40:34;;;;;;;38.13;16.48;;;7.10;99.90;;;;;;5073069;28;20056;-68
2021/03/08 08:43:14;;;;;;;45.17;18.52;;;7.10;99.90;;;;;;5070814;28;20408;-70
2021/03/08 08:45:45;;;;;;;30.83;15.57;;;7.20;99.90;;;;;;5072582;28;20087;-68
2021/03/08 08:48:11;;;;;;;34.15;16.15;;;7.40;99.90;;;;;;5072973;28;20362;-68
2021/03/08 08:50:49;;;;;;;36.10;15.95;;;7.40;99.90;;;;;;5070617;28;20023;-68
2021/03/08 08:53:37;;;;;;;41.55;16.65;;;7.40;99.90;;;;;;5071261;28;20052;-68
2021/03/08 08:56:03;;;;;;;;;;;7.40;99.90;;;;;;5070410;28;20036;-70
2021/03/08 08:58:31;;;;;;;29.27;14.07;;;7.30;99.90;;;;;;5072858;28;19915;-68
2021/03/08 09:01:53;;;;;;;38.00;16.48;;;7.30;99.90;;;;;;5071190;28;20040;-67
2021/03/08 09:03:55;;;;;;;40.55;15.43;;;7.40;99.90;;;;;;5068260;28;20037;-67
2021/03/08 09:06:40;;;;;;;30.92;14.85;;;7.50;99.90;;;;;;5072668;28;20024;-67
2021/03/08 09:09:05;;;;;;;35.08;16.38;;;7.70;99.90;;;;;;5067440;28;20033;-69
2021/03/08 09:11:57;;;;;;;34.50;14.85;;;7.80;99.90;;;;;;5070409;28;20489;-69
2021/03/08 09:14:47;;;;;;;33.25;14.80;;;7.60;99.90;;;;;;5065710;28;20124;-68
2021/03/08 09:17:22;;;;;;;37.35;14.70;;;7.70;99.90;;;;;;5050613;28;20032;-67
2021/03/08 09:19:55;;;;;;;49.00;15.82;;;7.70;99.90;;;;;;5063742;28;20472;-67
2021/03/08 09:22:27;;;;;;;35.88;13.60;;;7.60;99.90;;;;;;5061141;28;20485;-69
2021/03/08 09:24:57;;;;;;;36.88;14.98;;;7.60;99.90;;;;;;5067692;28;20047;-68
2021/03/08 09:27:33;;;;;;;35.50;15.38;;;7.50;99.90;;;;;;5066213;28;20035;-68
2021/03/08 09:30:07;;;;;;;32.42;14.57;;;7.30;99.90;;;;;;5068756;28;20515;-69
2021/03/08 09:32:34;;;;;;;32.22;14.35;;;7.30;99.90;;;;;;5070356;28;20119;-67
2021/03/08 09:35:08;;;;;;;27.17;13.55;;;7.50;99.90;;;;;;5066475;28;20037;-68
2021/03/08 09:37:34;;;;;;;34.05;15.23;;;7.70;99.90;;;;;;5064574;28;20032;-68
2021/03/08 09:40:03;;;;;;;37.10;14.77;;;7.80;99.90;;;;;;5074281;28;20032;-68
2021/03/08 09:42:38;;;;;;;;;;;7.80;99.90;;;;;;5072081;28;20035;-68
2021/03/08 09:45:31;;;;;;;27.85;13.35;;;7.70;99.90;;;;;;5066489;28;19920;-67
2021/03/08 09:48:00;;;;;;;29.58;13.13;;;7.80;99.90;;;;;;5075439;28;20017;-69
2021/03/08 09:50:29;;;;;;;29.63;13.45;;;7.90;99.90;;;;;;5069772;28;20033;-68
2021/03/08 09:52:56;;;;;;;32.05;13.13;;;7.80;99.90;;;;;;5065983;28;20033;-68
2021/03/08 09:55:26;;;;;;;30.85;12.95;;;8.00;99.90;;;;;;5066533;28;20027;-67
2021/03/08 09:57:52;;;;;;;31.83;13.70;;;8.00;99.90;;;;;;5063303;28;20041;-68
2021/03/08 10:00:23;;;;;;;30.70;14.27;;;7.90;99.90;;;;;;5068569;28;20201;-68
2021/03/08 10:02:59;;;;;;;36.50;14.18;;;8.00;99.90;;;;;;5069207;28;20113;-67
2021/03/08 10:05:41;;;;;;;31.23;14.15;;;8.20;99.90;;;;;;5071185;28;20518;-67
2021/03/08 10:08:08;;;;;;;26.90;14.30;;;8.40;99.90;;;;;;5070824;28;20024;-70
2021/03/08 10:10:58;;;;;;;28.45;13.27;;;8.70;99.90;;;;;;5073807;28;20523;-68
2021/03/08 10:13:25;;;;;;;32.00;14.20;;;8.80;99.90;;;;;;5063672;28;20041;-69
2021/03/08 10:15:52;;;;;;;28.77;12.63;;;9.00;99.90;;;;;;5079773;28;20177;-69
2021/03/08 10:18:30;;;;;;;30.13;12.65;;;9.20;99.90;;;;;;5078373;28;20052;-67
2021/03/08 10:21:04;;;;;;;37.08;15.18;;;9.40;99.90;;;;;;5075522;28;20051;-68
2021/03/08 10:23:32;;;;;;;29.15;12.70;;;9.00;99.90;;;;;;5072299;28;20033;-68
2021/03/08 10:26:15;;;;;;;29.58;14.30;;;9.10;99.90;;;;;;5074177;28;20479;-68
2021/03/08 10:28:45;;;;;;;30.75;13.70;;;9.20;99.90;;;;;;5066296;28;20376;-68
2021/03/08 10:31:23;;;;;;;29.02;13.55;;;9.20;99.90;;;;;;5069282;28;20056;-68
2021/03/08 10:33:52;;;;;;;29.67;13.82;;;9.10;99.90;;;;;;5067211;28;20503;-69
2021/03/08 10:36:20;;;;;;;31.02;13.90;;;9.00;99.90;;;;;;5061923;28;20040;-69
2021/03/08 10:38:51;;;;;;;;;;;9.10;99.90;;;;;;5065763;28;20120;-69
2021/03/08 10:41:20;;;;;;;28.25;13.23;;;9.30;99.90;;;;;;5065258;28;20022;-69
2021/03/08 10:43:46;;;;;;;28.20;12.50;;;9.40;99.90;;;;;;5064533;28;20132;-70
2021/03/08 10:46:12;;;;;;;32.88;14.55;;;9.50;99.90;;;;;;5064547;28;20104;-68
2021/03/08 10:48:53;;;;;;;30.27;12.70;;;9.50;99.90;;;;;;5066689;28;20017;-68
2021/03/08 10:51:19;;;;;;;23.65;12.82;;;9.60;99.90;;;;;;5063313;28;20146;-67
2021/03/08 10:53:59;;;;;;;24.83;12.38;;;9.50;99.90;;;;;;5064442;28;20112;-68
2021/03/08 10:56:26;;;;;;;28.08;13.20;;;9.30;99.90;;;;;;5063321;28;20090;-69
2021/03/08 10:58:54;;;;;;;32.42;13.18;;;9.50;99.90;;;;;;5059841;28;20021;-68
2021/03/08 11:01:20;;;;;;;35.50;14.05;;;9.50;99.90;;;;;;5063014;28;20032;-68
2021/03/08 11:03:46;;;;;;;25.65;11.77;;;9.40;99.90;;;;;;5063313;28;20107;-67
2021/03/08 11:06:17;;;;;;;24.95;12.20;;;9.40;99.90;;;;;;5065681;28;20124;-67
2021/03/08 11:08:58;;;;;;;27.85;12.43;;;9.50;99.90;;;;;;5071291;28;20039;-68
2021/03/08 11:11:30;;;;;;;30.77;12.93;;;9.80;99.90;;;;;;5068209;28;20024;-68
2021/03/08 11:14:05;;;;;;;23.70;11.57;;;10.30;99.90;;;;;;5068254;28;20027;-68
2021/03/08 11:16:32;;;;;;;24.85;11.88;;;10.70;99.90;;;;;;5066316;28;20043;-70
2021/03/08 11:19:20;;;;;;;29.15;11.80;;;10.80;99.90;;;;;;5070632;28;20024;-70
2021/03/08 11:22:01;;;;;;;27.42;13.90;;;11.00;99.90;;;;;;5067776;28;20042;-68
2021/03/08 11:24:31;;;;;;;23.75;12.43;;;10.70;99.90;;;;;;5068874;28;20391;-69
2021/03/08 11:27:11;;;;;;;25.58;12.00;;;10.20;99.90;;;;;;5073240;28;20020;-69
2021/03/08 11:29:39;;;;;;;32.25;13.68;;;10.10;99.90;;;;;;5071492;28;20017;-68
2021/03/08 11:32:06;;;;;;;30.13;13.57;;;10.10;99.90;;;;;;5073764;28;20107;-68
2021/03/08 11:34:43;;;;;;;23.23;11.68;;;10.00;99.90;;;;;;5069518;28;20051;-70
2021/03/08 11:37:14;;;;;;;28.20;12.53;;;10.20;99.90;;;;;;5071240;28;20390;-68
2021/03/08 11:39:50;;;;;;;32.25;12.98;;;10.40;99.90;;;;;;5071746;28;20043;-68
2021/03/08 11:42:17;;;;;;;27.05;12.07;;;10.40;99.90;;;;;;5068777;28;20016;-67
2021/03/08 11:44:44;;;;;;;24.58;11.32;;;10.50;99.90;;;;;;5070629;28;20031;-69
2021/03/08 11:47:11;;;;;;;20.85;10.85;;;10.50;99.90;;;;;;5070083;28;20035;-69
2021/03/08 11:49:37;;;;;;;27.77;11.27;;;10.30;99.90;;;;;;5071722;28;20412;-70
2021/03/08 11:52:03;;;;;;;27.33;11.60;;;10.10;99.90;;;;;;5072376;28;20020;-69
2021/03/08 11:54:29;;;;;;;27.77;11.30;;;9.80;99.90;;;;;;5070210;28;20060;-68
2021/03/08 11:56:55;;;;;;;24.75;12.68;;;9.70;99.90;;;;;;5070847;28;20515;-69
2021/03/08 11:59:20;;;;;;;27.23;11.25;;;9.80;99.90;;;;;;5063224;28;20043;-70
2021/03/08 12:01:46;;;;;;;25.52;11.95;;;10.10;99.90;;;;;;5068082;28;20056;-71
2021/03/08 12:04:12;;;;;;;21.73;11.43;;;10.40;99.90;;;;;;5065437;28;20025;-70
2021/03/08 12:06:38;;;;;;;22.92;11.15;;;10.60;99.90;;;;;;5065146;28;20027;-70
2021/03/08 12:09:04;;;;;;;24.45;10.77;;;10.60;99.90;;;;;;5080383;28;20488;-71
2021/03/08 12:11:30;;;;;;;21.65;11.20;;;10.70;99.90;;;;;;5059065;28;20565;-70
2021/03/08 12:13:55;;;;;;;22.40;10.38;;;10.60;99.90;;;;;;5069418;28;20116;-70
2021/03/08 12:16:21;;;;;;;20.35;10.85;;;10.60;99.90;;;;;;5070702;28;20020;-70
2021/03/08 12:18:48;;;;;;;22.00;9.43;;;10.80;99.90;;;;;;5068375;28;20388;-69
2021/03/08 12:21:14;;;;;;;15.82;8.20;;;10.80;99.90;;;;;;5058138;28;20024;-70
2021/03/08 12:23:40;;;;;;;21.33;8.35;;;10.90;99.90;;;;;;5070988;28;20508;-69
2021/03/08 12:26:05;;;;;;;17.60;7.85;;;11.10;99.80;;;;;;5067691;28;20033;-70
2021/03/08 12:28:31;;;;;;;18.23;8.38;;;11.40;99.40;;;;;;5070091;28;20029;-69
2021/03/08 12:30:57;;;;;;;18.42;9.55;;;11.40;98.80;;;;;;5069192;28;20170;-69
2021/03/08 12:33:23;;;;;;;14.88;8.80;;;11.20;99.70;;;;;;5067686;28;20041;-70
2021/03/08 12:35:49;;;;;;;16.85;8.73;;;11.00;99.90;;;;;;5070747;28;20040;-70
2021/03/08 12:38:14;;;;;;;21.02;9.35;;;11.10;99.80;;;;;;5073178;28;20095;-70
2021/03/08 12:40:40;;;;;;;18.50;8.60;;;11.00;99.50;;;;;;5075668;28;20044;-68
2021/03/08 12:43:06;;;;;;;21.77;8.95;;;11.10;99.60;;;;;;5068872;28;20113;-69
2021/03/08 12:45:32;;;;;;;18.67;8.73;;;10.90;99.00;;;;;;5070431;28;20016;-69
2021/03/08 12:47:58;;;;;;;16.30;8.20;;;10.70;99.40;;;;;;5067600;28;20408;-68
2021/03/08 12:50:23;;;;;;;15.98;7.90;;;10.60;99.90;;;;;;5056801;28;20032;-69
2021/03/08 12:52:49;;;;;;;12.95;7.90;;;10.70;99.40;;;;;;5061650;28;20464;-70
2021/03/08 12:55:15;;;;;;;13.52;7.63;;;10.70;99.80;;;;;;5067543;28;20044;-69